Time;durP1;ratioP1;P1;durP2;ratioP2;P2;SDS_P1;SDS_P2;PMS_P1;PMS_P2;Temp;Humidity;BMP_temperature;BMP_pressure;BME280_temperature;BME280_humidity;BME280_pressure;Samples;Min_cycle;Max_cycle;Signal;HPM_P1;HPM_P2
2021/04/08 00:01:46;;;;;;;1.52;1.02;;;;;;;18.91;48.67;102283.19;5002016;28;20029;-74
2021/04/08 00:04:12;;;;;;;2.20;0.90;;;;;;;18.83;48.85;102271.69;5031509;28;20082;-74
2021/04/08 00:06:37;;;;;;;2.20;0.90;;;;;;;19.05;48.78;102314.88;5030580;28;20053;-74
2021/04/08 00:09:03;;;;;;;3.47;1.20;;;;;;;18.98;48.68;102299.00;5004656;28;20156;-73
2021/04/08 00:11:28;;;;;;;0.63;0.52;;;;;;;18.92;48.88;102298.06;5042212;28;20044;-74
2021/04/08 00:13:53;;;;;;;2.70;1.15;;;;;;;19.00;48.68;102308.66;4978123;28;20443;-72
2021/04/08 00:16:19;;;;;;;2.70;0.95;;;;;;;19.00;48.72;102307.78;4991882;28;20029;-74
2021/04/08 00:18:44;;;;;;;1.77;1.10;;;;;;;19.04;48.77;102314.84;5019231;28;20086;-73
2021/04/08 00:21:10;;;;;;;1.77;1.08;;;;;;;19.01;48.70;102323.53;4972702;28;20523;-74
2021/04/08 00:23:35;;;;;;;2.75;1.08;;;;;;;19.03;48.65;102320.94;4999296;28;20113;-74
2021/04/08 00:26:02;;;;;;;2.15;1.25;;;;;;;18.93;48.83;102301.56;5024435;28;20121;-72
2021/04/08 00:28:27;;;;;;;2.42;1.20;;;;;;;18.96;48.70;102306.84;5035978;28;20044;-75
2021/04/08 00:30:53;;;;;;;2.80;1.15;;;;;;;19.01;48.81;102317.41;5000377;28;20021;-75
2021/04/08 00:33:18;;;;;;;1.48;0.85;;;;;;;18.98;48.88;102319.97;5017809;28;20025;-72
2021/04/08 00:35:45;;;;;;;2.35;0.88;;;;;;;18.90;48.87;102297.16;5001739;28;20026;-72
2021/04/08 00:38:11;;;;;;;1.33;0.70;;;;;;;18.98;48.73;102314.72;5013114;28;20054;-74
2021/04/08 00:40:37;;;;;;;1.77;0.90;;;;;;;18.90;48.75;102297.16;5020652;28;20025;-74
2021/04/08 00:43:04;;;;;;;5.03;1.48;;;;;;;18.94;48.78;102303.34;5023364;28;20052;-75
2021/04/08 00:45:30;;;;;;;2.58;1.23;;;;;;;18.98;48.76;102315.63;5016718;28;20025;-75
2021/04/08 00:47:55;;;;;;;1.40;0.88;;;;;;;18.97;48.63;102305.09;5007670;28;20126;-75
2021/04/08 00:50:21;;;;;;;1.30;0.85;;;;;;;18.88;48.73;102296.25;5026952;28;20024;-74
2021/04/08 00:52:59;;;;;;;1.42;1.02;;;;;;;18.96;48.91;102312.09;5039414;28;20361;-75
2021/04/08 00:55:32;;;;;;;1.75;0.95;;;;;;;18.84;48.77;102291.81;5016755;28;20029;-74
2021/04/08 00:58:01;;;;;;;2.72;0.93;;;;;;;18.96;48.82;102313.81;5037074;28;20483;-73
2021/04/08 01:00:27;;;;;;;2.15;0.90;;;;;;;18.91;48.79;102309.41;5038541;28;20033;-73
2021/04/08 01:02:52;;;;;;;1.40;0.90;;;;;;;18.89;48.79;102308.50;5018396;28;20132;-73
2021/04/08 01:05:18;;;;;;;1.98;0.88;;;;;;;18.91;48.76;102319.91;5017263;28;20045;-72
2021/04/08 01:07:43;;;;;;;2.55;0.70;;;;;;;18.86;48.53;102311.06;4998642;28;20487;-73
2021/04/08 01:10:11;;;;;;;1.52;1.00;;;;;;;18.88;48.82;102308.47;5003991;28;20029;-73
2021/04/08 01:12:36;;;;;;;1.70;0.82;;;;;;;18.89;48.85;102318.97;4998059;28;20506;-72
2021/04/08 01:15:05;;;;;;;3.08;1.35;;;;;;;18.87;48.79;102304.06;5001717;28;20116;-73
2021/04/08 01:18:00;;;;;;;1.33;0.88;;;;;;;18.90;48.66;102320.75;5019951;28;20124;-73
2021/04/08 01:21:03;;;;;;;2.20;1.23;;;;;;;18.91;48.68;102319.00;5028756;28;20091;-73
2021/04/08 01:23:50;;;;;;;1.85;0.80;;;;;;;18.91;48.85;102319.91;5005345;28;20036;-74
2021/04/08 01:26:52;;;;;;;1.30;0.65;;;;;;;18.90;48.90;102323.38;5013596;28;20037;-75
2021/04/08 01:29:20;;;;;;;1.70;0.88;;;;;;;18.89;48.64;102325.97;5026984;28;20029;-72
2021/04/08 01:31:47;;;;;;;1.92;1.15;;;;;;;18.89;48.80;102326.84;5025666;28;20036;-75
2021/04/08 01:34:14;;;;;;;0.80;0.50;;;;;;;18.83;48.85;102325.84;5017299;28;20501;-73
2021/04/08 01:36:47;;;;;;;1.45;0.77;;;;;;;18.84;48.76;102325.00;5021619;28;20033;-75
2021/04/08 01:39:15;;;;;;;1.00;0.60;;;;;;;18.80;48.70;102323.19;5036198;28;20029;-74
2021/04/08 01:41:43;;;;;;;1.90;1.02;;;;;;;18.75;48.96;102310.00;5037278;28;20057;-75
2021/04/08 01:44:16;;;;;;;2.60;0.80;;;;;;;18.86;48.82;102328.53;5016095;28;20033;-74
2021/04/08 01:46:46;;;;;;;3.30;1.05;;;;;;;18.80;48.72;102320.56;5041394;28;20376;-75
2021/04/08 01:49:13;;;;;;;1.40;0.82;;;;;;;18.83;48.63;102325.84;5049061;28;20032;-75
2021/04/08 01:51:38;;;;;;;1.73;0.63;;;;;;;18.82;48.72;102332.84;5032225;28;20032;-74
2021/04/08 01:54:07;;;;;;;1.05;0.63;;;;;;;18.84;48.79;102330.22;5027850;28;20028;-74
2021/04/08 01:56:35;;;;;;;1.00;0.50;;;;;;;18.84;48.50;102338.09;5021036;28;20035;-75
2021/04/08 01:59:02;;;;;;;1.85;1.02;;;;;;;18.73;48.59;102305.59;5020520;28;20029;-73
2021/04/08 02:01:28;;;;;;;2.20;0.88;;;;;;;18.81;48.92;102331.09;5032161;28;20044;-73
2021/04/08 02:03:56;;;;;;;3.03;1.25;;;;;;;18.79;48.80;102318.81;5015390;28;20026;-73
2021/04/08 02:06:26;;;;;;;1.92;0.85;;;;;;;18.76;48.75;102314.38;5062811;28;20063;-74
2021/04/08 02:08:53;;;;;;;2.83;0.95;;;;;;;18.77;48.69;102317.88;5048843;28;20025;-74
2021/04/08 02:11:20;;;;;;;1.58;0.70;;;;;;;18.76;48.64;102322.25;5036985;28;20029;-73
2021/04/08 02:13:48;;;;;;;1.42;0.60;;;;;;;18.76;48.67;102327.50;5034279;28;20025;-75
2021/04/08 02:16:17;;;;;;;5.15;0.93;;;;;;;18.80;48.93;102331.94;5041534;28;20032;-74
2021/04/08 02:18:42;;;;;;;1.05;0.50;;;;;;;18.79;48.67;102332.78;5067021;28;20075;-74
2021/04/08 02:21:09;;;;;;;1.23;0.57;;;;;;;18.74;48.64;102318.72;5053903;28;20048;-75
2021/04/08 02:23:38;;;;;;;1.52;1.20;;;;;;;18.80;48.67;102325.81;5034647;28;20044;-72
2021/04/08 02:26:07;;;;;;;0.80;0.50;;;;;;;18.79;48.60;102330.19;5051514;28;20078;-74
2021/04/08 02:28:34;;;;;;;1.90;1.00;;;;;;;18.76;48.64;102324.88;5017662;28;20033;-75
2021/04/08 02:31:00;;;;;;;1.98;1.02;;;;;;;18.73;48.88;102322.19;5036506;28;20067;-73
2021/04/08 02:33:28;;;;;;;1.45;0.70;;;;;;;18.77;48.71;102323.13;5034925;28;20021;-77
2021/04/08 02:35:56;;;;;;;2.25;1.48;;;;;;;18.73;48.58;102311.72;5020682;28;20048;-74
2021/04/08 02:38:27;;;;;;;1.42;0.93;;;;;;;18.69;48.59;102309.91;5052625;28;20511;-72
2021/04/08 02:40:54;;;;;;;0.57;0.50;;;;;;;18.74;48.68;102321.34;5031502;28;20029;-75
2021/04/08 02:43:20;;;;;;;0.98;0.60;;;;;;;18.68;48.79;102302.03;5035167;28;20043;-74
2021/04/08 02:45:45;;;;;;;1.85;0.98;;;;;;;18.73;48.55;102311.72;5020772;28;20466;-74
2021/04/08 02:48:13;;;;;;;1.77;0.73;;;;;;;18.69;48.57;102302.06;5017966;28;20163;-74
2021/04/08 02:50:41;;;;;;;1.02;0.60;;;;;;;18.70;48.67;102311.66;5061841;28;20025;-74
2021/04/08 02:53:13;;;;;;;1.20;0.80;;;;;;;18.74;48.42;102318.72;5022567;28;20017;-73
2021/04/08 02:55:49;;;;;;;4.97;1.25;;;;;;;18.71;48.62;102312.53;5055215;28;20021;-73
2021/04/08 02:58:17;;;;;;;1.90;0.93;;;;;;;18.67;48.46;102301.13;5030952;28;20024;-73
2021/04/08 03:00:53;;;;;;;1.80;0.93;;;;;;;18.68;48.92;102302.03;5031488;28;20387;-74
2021/04/08 03:03:22;;;;;;;1.83;0.50;;;;;;;18.72;48.30;102317.81;5038929;28;21608;-74
2021/04/08 03:05:48;;;;;;;0.98;0.60;;;;;;;18.71;48.50;102321.28;5033808;28;20049;-74
2021/04/08 03:08:17;;;;;;;1.17;0.68;;;;;;;18.65;48.47;102310.69;5047130;28;20051;-74
2021/04/08 03:10:44;;;;;;;1.15;0.80;;;;;;;18.71;48.49;102320.38;5057118;28;20028;-73
2021/04/08 03:13:12;;;;;;;1.30;0.68;;;;;;;18.64;48.40;102313.28;5032877;28;20016;-74
2021/04/08 03:15:38;;;;;;;3.33;0.77;;;;;;;18.68;48.82;102321.25;5035135;28;20037;-74
2021/04/08 03:18:14;;;;;;;1.50;0.82;;;;;;;18.65;48.49;102320.31;5014969;28;20029;-74
2021/04/08 03:20:41;;;;;;;6.93;1.30;;;;;;;18.68;48.70;102316.00;5031876;28;20032;-75
2021/04/08 03:23:11;;;;;;;2.95;1.08;;;;;;;18.67;48.47;102315.97;5054293;28;20029;-74
2021/04/08 03:25:38;;;;;;;2.08;0.75;;;;;;;18.58;48.64;102295.72;5034188;28;20524;-74
2021/04/08 03:28:05;;;;;;;1.17;0.60;;;;;;;18.66;48.73;102322.94;5052811;28;20040;-75
2021/04/08 03:30:31;;;;;;;2.85;0.82;;;;;;;18.61;48.43;102313.22;5035150;28;20021;-73
2021/04/08 03:32:57;;;;;;;1.92;0.80;;;;;;;18.61;48.45;102303.63;5051584;28;20051;-74
2021/04/08 03:35:23;;;;;;;1.15;0.75;;;;;;;18.64;48.63;102314.19;5000522;28;20055;-74
2021/04/08 03:37:49;;;;;;;2.08;0.77;;;;;;;18.63;48.70;102315.03;5052550;28;20033;-76
2021/04/08 03:40:15;;;;;;;2.63;0.75;;;;;;;18.63;48.68;102316.75;5057227;28;20201;-74
2021/04/08 03:42:41;;;;;;;1.35;0.82;;;;;;;18.56;48.49;102306.13;5036217;28;20041;-74
2021/04/08 03:45:10;;;;;;;2.58;0.80;;;;;;;18.54;48.31;102302.63;5016684;28;20033;-74
2021/04/08 03:47:41;;;;;;;1.70;1.00;;;;;;;18.57;48.24;102312.25;5052084;28;20029;-74
2021/04/08 03:50:08;;;;;;;2.58;0.52;;;;;;;18.57;48.27;102304.38;5034669;28;20074;-75
2021/04/08 03:52:34;;;;;;;1.55;0.85;;;;;;;18.57;48.33;102312.25;5035886;28;20479;-75
2021/04/08 03:55:02;;;;;;;2.10;0.90;;;;;;;18.54;48.10;102293.88;5037701;28;20035;-74
2021/04/08 03:57:28;;;;;;;1.45;0.60;;;;;;;18.58;48.43;102306.19;5036729;28;20024;-74
2021/04/08 03:59:54;;;;;;;0.63;0.45;;;;;;;18.56;48.58;102300.03;5038030;28;20025;-75
2021/04/08 04:02:20;;;;;;;1.52;0.60;;;;;;;18.57;48.66;102301.78;5006032;28;20115;-74
2021/04/08 04:04:47;;;;;;;1.25;0.80;;;;;;;18.55;48.55;102303.50;5019018;28;20119;-74
2021/04/08 04:07:14;;;;;;;1.67;0.50;;;;;;;18.53;48.57;102305.22;5033276;28;20479;-75
2021/04/08 04:09:40;;;;;;;1.13;0.50;;;;;;;18.57;48.45;102309.63;4985773;28;20125;-74
2021/04/08 04:12:07;;;;;;;0.98;0.70;;;;;;;18.53;48.38;102305.22;5017648;28;20056;-74
2021/04/08 04:14:37;;;;;;;1.42;0.93;;;;;;;18.50;48.33;102299.91;5020414;28;20095;-74
2021/04/08 04:17:35;;;;;;;0.98;0.52;;;;;;;18.55;48.29;102308.75;5017734;28;20021;-75
2021/04/08 04:20:04;;;;;;;1.70;0.80;;;;;;;18.55;48.41;102311.38;5015242;28;20033;-74
2021/04/08 04:22:30;;;;;;;1.83;0.80;;;;;;;18.52;48.46;102300.81;5029637;28;20071;-75
2021/04/08 04:24:55;;;;;;;2.28;1.13;;;;;;;18.52;48.42;102304.31;5007012;28;20431;-74
2021/04/08 04:27:20;;;;;;;3.25;0.88;;;;;;;18.54;48.37;102310.47;5010499;28;20041;-74
2021/04/08 04:29:46;;;;;;;1.85;0.60;;;;;;;18.47;48.50;102305.97;5012297;28;20033;-72
2021/04/08 04:32:12;;;;;;;1.55;0.50;;;;;;;18.49;48.10;102312.13;5016691;28;20033;-73
2021/04/08 04:34:44;;;;;;;1.50;0.70;;;;;;;18.50;48.40;102315.63;5016572;28;20415;-74
2021/04/08 04:37:10;;;;;;;1.27;0.60;;;;;;;18.46;48.32;102300.69;5038701;28;20032;-75
2021/04/08 04:39:37;;;;;;;0.90;0.52;;;;;;;18.50;48.59;102310.38;5002827;28;20045;-75
2021/04/08 04:42:03;;;;;;;1.23;0.70;;;;;;;18.54;48.47;102314.84;5010346;28;20052;-75
2021/04/08 04:44:29;;;;;;;1.05;0.57;;;;;;;18.52;48.22;102313.94;5015822;28;20049;-75
2021/04/08 04:46:56;;;;;;;2.00;0.70;;;;;;;18.50;48.35;102311.28;5017707;28;20025;-75
2021/04/08 04:49:22;;;;;;;1.48;0.85;;;;;;;18.50;48.49;102308.66;5035625;28;20017;-74
2021/04/08 04:51:48;;;;;;;2.38;0.70;;;;;;;18.47;48.19;102305.97;5016729;28;20104;-75
2021/04/08 04:54:13;;;;;;;2.47;0.82;;;;;;;18.49;48.35;102312.13;5036260;28;20105;-75
2021/04/08 04:56:39;;;;;;;1.33;0.70;;;;;;;18.50;48.46;102315.63;5047565;28;20060;-75
2021/04/08 04:59:06;;;;;;;1.33;0.80;;;;;;;18.44;48.30;102303.28;5008102;28;20082;-75
2021/04/08 05:01:32;;;;;;;0.80;0.57;;;;;;;18.49;48.17;102313.84;5022503;28;20033;-76
2021/04/08 05:03:57;;;;;;;1.10;1.00;;;;;;;18.47;48.18;102315.56;5015280;28;20029;-75
2021/04/08 05:06:23;;;;;;;1.25;0.68;;;;;;;18.49;48.10;102303.38;5014574;28;20060;-75
2021/04/08 05:08:49;;;;;;;1.63;0.80;;;;;;;18.47;48.28;102307.69;5057035;28;20479;-74
2021/04/08 05:11:14;;;;;;;2.25;1.40;;;;;;;18.52;48.11;102313.94;5004685;28;20035;-75
2021/04/08 05:13:39;;;;;;;1.30;0.68;;;;;;;18.56;47.99;102311.38;5038176;28;20463;-76
2021/04/08 05:16:05;;;;;;;1.92;0.80;;;;;;;18.67;47.69;102316.84;5053248;28;20692;-75
2021/04/08 05:18:30;;;;;;;1.77;0.70;;;;;;;18.71;47.91;102320.38;5021803;28;20029;-76
2021/04/08 05:20:56;;;;;;;0.85;0.50;;;;;;;18.69;48.07;102316.88;5047073;28;20044;-74
2021/04/08 05:23:22;;;;;;;2.22;0.82;;;;;;;18.76;47.99;102313.50;5033113;28;20040;-74
2021/04/08 05:25:51;;;;;;;1.50;0.70;;;;;;;18.74;47.83;102299.50;5035856;28;20029;-75
2021/04/08 05:28:16;;;;;;;1.13;0.68;;;;;;;18.80;48.30;102315.34;5038937;28;20029;-76
2021/04/08 05:30:42;;;;;;;4.60;1.85;;;;;;;18.75;48.06;102304.75;5037401;28;20028;-74
2021/04/08 05:33:07;;;;;;;2.10;0.75;;;;;;;18.85;48.27;102305.78;5032749;28;20470;-76
2021/04/08 05:35:33;;;;;;;3.75;0.70;;;;;;;18.87;48.35;102309.31;5035155;28;20028;-76
2021/04/08 05:37:59;;;;;;;3.20;1.05;;;;;;;18.86;48.26;102311.06;5042097;28;20106;-76
2021/04/08 05:40:24;;;;;;;2.03;0.98;;;;;;;18.87;48.38;102310.22;5053505;28;20163;-76
2021/04/08 05:42:49;;;;;;;1.27;0.93;;;;;;;18.95;48.30;102312.09;5018097;28;20045;-74
2021/04/08 05:45:17;;;;;;;2.00;1.10;;;;;;;18.94;48.10;102302.47;5048350;28;20037;-74
2021/04/08 05:47:43;;;;;;;2.15;0.77;;;;;;;18.96;48.44;102319.06;5038364;28;20403;-75
2021/04/08 05:50:10;;;;;;;2.30;0.80;;;;;;;18.96;48.38;102305.97;5034003;28;20032;-75
2021/04/08 05:52:35;;;;;;;1.20;0.70;;;;;;;19.02;48.20;102308.69;5020370;28;20029;-74
2021/04/08 05:55:01;;;;;;;1.15;0.70;;;;;;;18.99;48.45;102316.50;5037405;28;20041;-75
2021/04/08 05:57:26;;;;;;;1.40;0.70;;;;;;;19.01;48.40;102320.03;5048758;28;20056;-74
2021/04/08 05:59:52;;;;;;;2.72;0.68;;;;;;;19.09;48.28;102319.28;5017064;28;20375;-74
2021/04/08 06:02:17;;;;;;;1.65;0.75;;;;;;;19.05;48.23;102307.00;5011881;28;20128;-74
2021/04/08 06:04:43;;;;;;;2.30;0.82;;;;;;;19.06;48.19;102313.13;5035726;28;20116;-72
2021/04/08 06:07:08;;;;;;;1.73;0.77;;;;;;;19.06;48.16;102313.13;5007189;28;20048;-74
2021/04/08 06:09:33;;;;;;;1.35;0.68;;;;;;;19.12;48.09;102318.47;5013040;28;20086;-75
2021/04/08 06:11:59;;;;;;;3.67;0.90;;;;;;;19.10;48.16;102315.81;5017768;28;20044;-75
2021/04/08 06:14:26;;;;;;;1.13;0.70;;;;;;;19.02;47.84;102304.34;5023741;28;20028;-73
2021/04/08 06:16:51;;;;;;;2.72;0.47;;;;;;;19.13;48.19;102317.59;5032230;28;20120;-74
2021/04/08 06:19:17;;;;;;;1.52;1.38;;;;;;;19.17;47.94;102319.44;5026806;28;20120;-74
2021/04/08 06:21:42;;;;;;;2.80;0.68;;;;;;;19.22;47.76;102323.00;5054735;28;20053;-76
2021/04/08 06:24:08;;;;;;;5.25;1.13;;;;;;;19.26;47.43;102316.94;5050874;28;20037;-74
2021/04/08 06:26:34;;;;;;;0.98;0.70;;;;;;;19.30;47.48;102326.63;5026341;28;20041;-75
2021/04/08 06:29:01;;;;;;;1.23;0.60;;;;;;;19.33;47.20;102317.94;5056282;28;20086;-75
2021/04/08 06:31:27;;;;;;;0.95;0.60;;;;;;;19.35;47.27;102330.19;5034421;28;20357;-76
2021/04/08 06:33:53;;;;;;;1.77;0.75;;;;;;;19.35;47.09;102326.69;5052864;28;20016;-76
2021/04/08 06:36:20;;;;;;;0.82;0.52;;;;;;;19.37;47.15;102320.59;5041121;28;20035;-76
2021/04/08 06:38:45;;;;;;;1.13;0.50;;;;;;;19.42;46.91;102320.69;5036824;28;20056;-76
2021/04/08 06:41:10;;;;;;;1.00;0.60;;;;;;;19.44;46.97;102327.72;5033654;28;20037;-76
2021/04/08 06:43:39;;;;;;;1.85;0.55;;;;;;;19.44;46.97;102327.72;5018593;28;20025;-74
2021/04/08 06:46:06;;;;;;;1.50;0.50;;;;;;;19.57;46.80;102326.19;5062425;28;20055;-74
2021/04/08 06:48:38;;;;;;;1.67;0.70;;;;;;;19.56;46.76;102312.19;5047752;28;20026;-75
2021/04/08 06:51:10;;;;;;;0.82;0.60;;;;;;;19.58;46.65;102320.09;5034389;28;20086;-75
2021/04/08 06:53:37;;;;;;;1.25;0.75;;;;;;;19.56;46.88;102312.19;5035618;28;20036;-72
2021/04/08 06:56:03;;;;;;;0.70;0.60;;;;;;;19.69;46.13;102321.09;5017802;28;20052;-75
2021/04/08 06:58:29;;;;;;;1.70;0.95;;;;;;;19.73;46.39;102327.28;5020521;28;20489;-74
2021/04/08 07:00:55;;;;;;;1.33;0.70;;;;;;;19.69;46.91;102328.09;5061476;28;20111;-74
2021/04/08 07:03:20;;;;;;;1.42;0.80;;;;;;;19.66;46.57;102318.44;5047506;28;20029;-74
2021/04/08 07:05:46;;;;;;;0.63;0.45;;;;;;;19.71;46.75;102321.13;5036032;28;20114;-73
2021/04/08 07:08:11;;;;;;;0.95;0.70;;;;;;;19.66;46.93;102328.03;5020430;28;20037;-74
2021/04/08 07:10:40;;;;;;;1.90;0.80;;;;;;;19.57;46.94;102319.19;5032336;28;20025;-74
2021/04/08 07:13:05;;;;;;;1.02;0.55;;;;;;;19.66;46.95;102325.41;5045938;28;20025;-73
2021/04/08 07:15:31;;;;;;;1.13;0.50;;;;;;;19.59;46.92;102327.97;5018235;28;20064;-73
2021/04/08 07:17:57;;;;;;;1.17;0.68;;;;;;;19.57;47.07;102327.06;5011284;28;20032;-73
2021/04/08 07:20:23;;;;;;;1.85;0.98;;;;;;;19.61;47.25;102338.47;5044450;28;20025;-75
2021/04/08 07:22:48;;;;;;;0.73;0.55;;;;;;;19.57;46.85;102319.19;5002923;28;20029;-74
2021/04/08 07:25:19;;;;;;;1.08;0.60;;;;;;;19.53;47.09;102330.50;5003488;28;20048;-74
2021/04/08 07:27:45;;;;;;;1.10;0.65;;;;;;;19.58;47.02;102339.34;5038327;28;20218;-74
2021/04/08 07:30:11;;;;;;;1.33;0.98;;;;;;;19.59;47.05;102330.59;5057158;28;20029;-75
2021/04/08 07:32:40;;;;;;;1.02;0.90;;;;;;;19.58;47.20;102338.44;5039933;28;20081;-74
2021/04/08 07:35:16;;;;;;;1.83;0.50;;;;;;;19.55;47.19;102335.78;5030042;28;20021;-72
2021/04/08 07:37:43;;;;;;;1.02;0.60;;;;;;;19.62;46.89;102337.59;5037184;28;20068;-73
2021/04/08 07:40:17;;;;;;;0.75;0.60;;;;;;;19.62;47.23;102330.63;5053881;28;20029;-73
2021/04/08 07:42:43;;;;;;;1.02;0.73;;;;;;;19.56;47.27;102333.19;5037894;28;20021;-74
2021/04/08 07:45:09;;;;;;;1.73;0.75;;;;;;;19.49;47.11;102323.44;5034222;28;20471;-74
2021/04/08 07:47:43;;;;;;;0.70;0.40;;;;;;;19.52;47.13;102314.72;5038357;28;20040;-75
2021/04/08 07:50:17;;;;;;;0.70;0.50;;;;;;;19.55;47.07;102323.53;5019923;28;20021;-75
2021/04/08 07:52:47;;;;;;;0.30;0.30;;;;;;;19.60;46.88;102334.09;5020826;28;20530;-73
2021/04/08 07:55:27;;;;;;;0.85;0.52;;;;;;;19.62;47.23;102337.59;5035650;28;20036;-76
2021/04/08 07:58:06;;;;;;;0.60;0.50;;;;;;;19.57;47.11;102316.56;5063010;28;20032;-73
2021/04/08 08:00:33;;;;;;;1.63;0.80;;;;;;;19.62;46.81;102332.34;5038243;28;20471;-74
2021/04/08 08:03:04;;;;;;;1.25;0.60;;;;;;;19.53;47.13;102314.75;5037973;28;20067;-74
2021/04/08 08:05:32;;;;;;;2.65;0.70;;;;;;;19.61;47.16;102322.72;5038032;28;20048;-73
2021/04/08 08:08:21;;;;;;;0.68;0.68;;;;;;;19.65;46.90;102335.03;5009119;28;20033;-74
2021/04/08 08:11:02;;;;;;;0.63;0.63;;;;;;;19.65;47.15;102331.53;5025350;28;20037;-74
2021/04/08 08:13:28;;;;;;;1.10;0.65;;;;;;;19.69;46.98;102323.72;5023295;28;20040;-72
2021/04/08 08:15:57;;;;;;;0.75;0.40;;;;;;;19.67;47.07;102329.81;5037556;28;20033;-75
2021/04/08 08:18:26;;;;;;;0.68;0.52;;;;;;;19.58;46.99;102309.59;5053710;28;20017;-73
2021/04/08 08:20:59;;;;;;;0.70;0.40;;;;;;;19.72;46.78;102328.16;5036700;28;20026;-74
2021/04/08 08:23:45;;;;;;;1.83;0.70;;;;;;;19.71;46.87;102329.88;5034247;28;20072;-74
2021/04/08 08:26:37;;;;;;;1.35;0.60;;;;;;;19.69;47.01;102330.72;5024513;28;20036;-74
2021/04/08 08:29:08;;;;;;;0.73;0.40;;;;;;;19.71;46.93;102329.88;5027997;28;20533;-74
2021/04/08 08:31:40;;;;;;;0.57;0.52;;;;;;;19.73;46.87;102328.16;5037689;28;20474;-73
2021/04/08 08:34:09;;;;;;;1.20;0.80;;;;;;;19.64;47.14;102322.78;5048670;28;20405;-75
2021/04/08 08:36:36;;;;;;;1.02;0.70;;;;;;;19.60;47.33;102313.13;5020863;28;20079;-74
2021/04/08 08:39:06;;;;;;;5.20;0.73;;;;;;;19.61;47.50;102326.22;5035406;28;20475;-73
2021/04/08 08:41:31;;;;;;;0.52;0.40;;;;;;;19.56;47.84;102320.06;5054877;28;20099;-74
2021/04/08 08:43:58;;;;;;;0.80;0.43;;;;;;;19.53;47.88;102332.25;5028232;28;20121;-74
2021/04/08 08:46:25;;;;;;;1.10;0.50;;;;;;;19.52;47.87;102326.13;5033453;28;20058;-74
2021/04/08 08:48:52;;;;;;;1.35;0.60;;;;;;;19.53;47.96;102319.13;5041200;28;20100;-72
2021/04/08 08:51:19;;;;;;;1.67;0.98;;;;;;;19.51;47.90;102319.09;5035108;28;20431;-76
2021/04/08 08:53:45;;;;;;;7.10;0.60;;;;;;;19.50;47.85;102319.97;5041862;28;20029;-75
2021/04/08 08:56:11;;;;;;;1.00;0.60;;;;;;;19.48;48.21;102313.75;5014340;28;20032;-75
2021/04/08 08:58:37;;;;;;;2.42;0.98;;;;;;;19.51;48.34;102320.84;5036734;28;20546;-76
2021/04/08 09:01:03;;;;;;;0.82;0.70;;;;;;;19.53;48.25;102332.25;5054706;28;20395;-73
2021/04/08 09:03:28;;;;;;;2.35;0.68;;;;;;;19.48;47.98;102316.38;5035931;28;20041;-74
2021/04/08 09:05:56;;;;;;;0.95;0.73;;;;;;;19.52;48.14;102325.22;5016256;28;20049;-73
2021/04/08 09:08:26;;;;;;;1.17;0.90;;;;;;;19.51;47.82;102323.47;5031130;28;20506;-73
2021/04/08 09:10:52;;;;;;;1.83;0.80;;;;;;;19.44;48.37;102311.09;5028772;28;20033;-74
2021/04/08 09:13:18;;;;;;;1.15;0.90;;;;;;;19.45;48.45;102320.72;5016136;28;20021;-75
2021/04/08 09:15:43;;;;;;;1.38;1.00;;;;;;;19.43;48.71;102318.09;5012460;28;20041;-74
2021/04/08 09:18:10;;;;;;;1.02;0.90;;;;;;;19.40;48.50;102317.16;5033224;28;20021;-74
2021/04/08 09:20:37;;;;;;;1.55;0.80;;;;;;;19.40;48.69;102322.41;5031640;28;20052;-74
2021/04/08 09:23:03;;;;;;;1.50;1.33;;;;;;;19.41;48.66;102327.66;5032909;28;20033;-74
2021/04/08 09:25:37;;;;;;;4.18;1.00;;;;;;;19.34;48.54;102317.97;5031651;28;20026;-74
2021/04/08 09:28:11;;;;;;;0.80;0.68;;;;;;;19.36;48.39;102320.56;5021634;28;20048;-75
2021/04/08 09:33:40;;;;;;;0.98;0.77;;;;;;;19.40;48.44;102335.50;5031722;28;20106;-78
2021/04/08 09:36:18;;;;;;;1.95;0.93;;;;;;;19.37;48.55;102324.97;5027402;28;20029;-75
2021/04/08 09:38:43;;;;;;;1.40;0.80;;;;;;;19.29;48.88;102319.63;5031095;28;20026;-74
2021/04/08 09:41:09;;;;;;;2.95;1.05;;;;;;;19.39;48.36;102321.50;5016191;28;20030;-74
2021/04/08 09:43:36;;;;;;;1.17;0.90;;;;;;;19.44;48.47;102326.84;5031915;28;20750;-74
2021/04/08 09:46:05;;;;;;;1.50;1.00;;;;;;;19.47;48.27;102322.53;5034588;28;20100;-76
2021/04/08 09:48:52;;;;;;;1.02;0.80;;;;;;;19.48;48.29;102318.13;5033745;28;20059;-75
2021/04/08 09:51:58;;;;;;;1.75;0.88;;;;;;;19.57;48.20;102316.56;5031226;28;20063;-75
2021/04/08 09:54:41;;;;;;;1.25;0.90;;;;;;;19.61;48.22;102318.34;5027706;28;20029;-73
2021/04/08 09:57:08;;;;;;;1.70;1.08;;;;;;;19.63;48.13;102319.25;5032004;28;20021;-74
2021/04/08 09:59:54;;;;;;;1.63;1.00;;;;;;;19.68;47.97;102311.47;5006725;28;20084;-74
2021/04/08 10:02:20;;;;;;;1.15;0.95;;;;;;;19.67;48.20;102311.44;5031760;28;20029;-75
2021/04/08 10:05:04;;;;;;;1.55;0.98;;;;;;;19.69;48.20;102312.34;5000901;28;20042;-76
2021/04/08 10:07:30;;;;;;;1.55;1.10;;;;;;;19.73;48.27;102312.41;5043055;28;20021;-75
2021/04/08 10:09:56;;;;;;;1.25;0.88;;;;;;;19.79;48.25;102320.34;5034148;28;20040;-75
2021/04/08 10:12:32;;;;;;;1.20;1.10;;;;;;;19.77;48.13;102322.06;5017537;28;20029;-75
2021/04/08 10:14:57;;;;;;;1.10;0.90;;;;;;;19.72;48.23;102310.66;5031610;28;20025;-75
2021/04/08 10:17:34;;;;;;;0.93;0.80;;;;;;;19.81;48.09;102310.75;5017058;28;20025;-78
2021/04/08 10:20:00;;;;;;;1.27;0.70;;;;;;;19.80;48.36;102295.00;5008550;28;20106;-73
2021/04/08 10:22:25;;;;;;;2.55;1.17;;;;;;;19.96;48.08;102317.97;5020901;28;20053;-75
2021/04/08 10:24:51;;;;;;;3.10;1.15;;;;;;;19.93;48.32;102307.41;5015254;28;20060;-74
2021/04/08 10:27:19;;;;;;;1.98;1.20;;;;;;;19.92;48.32;102311.78;5025480;28;20386;-74
2021/04/08 10:29:47;;;;;;;1.13;1.00;;;;;;;19.94;48.34;102311.81;5019415;28;20406;-80
2021/04/08 10:32:12;;;;;;;1.70;1.08;;;;;;;20.01;48.29;102312.75;5017573;28;20026;-75
2021/04/08 10:34:40;;;;;;;1.13;0.85;;;;;;;19.98;48.40;102300.47;5011486;28;20475;-78
2021/04/08 10:37:08;;;;;;;1.65;1.05;;;;;;;19.99;48.31;102303.09;5022972;28;20496;-78
2021/04/08 10:39:36;;;;;;;1.50;1.10;;;;;;;20.04;48.41;102286.53;5021028;28;20029;-79
2021/04/08 10:42:05;;;;;;;1.27;1.00;;;;;;;20.11;48.54;102291.00;5037239;28;20380;-74
2021/04/08 10:44:39;;;;;;;3.95;1.00;;;;;;;20.08;48.42;102285.69;5016086;28;20017;-73
2021/04/08 10:47:08;;;;;;;;;;;;;;;20.06;48.37;102283.06;5014483;28;20036;-72
2021/04/08 10:49:36;;;;;;;1.20;0.80;;;;;;;20.07;48.71;102286.56;5016380;28;19913;-73
2021/04/08 10:52:10;;;;;;;4.43;1.33;;;;;;;20.04;49.22;102297.03;5026656;28;20132;-74
2021/04/08 10:54:38;;;;;;;5.15;2.13;;;;;;;19.97;49.23;102288.22;5026144;28;20078;-72
2021/04/08 10:57:05;;;;;;;1.85;1.20;;;;;;;19.97;49.52;102296.09;5016306;28;20401;-74
2021/04/08 10:59:31;;;;;;;2.28;1.00;;;;;;;19.93;49.48;102286.41;4995561;28;20045;-73
2021/04/08 11:01:58;;;;;;;2.95;1.25;;;;;;;19.95;49.52;102303.06;5014111;28;20041;-73
2021/04/08 11:04:24;;;;;;;1.35;0.85;;;;;;;19.90;49.67;102286.34;5019130;28;20026;-74
2021/04/08 11:06:51;;;;;;;2.75;0.95;;;;;;;19.86;49.60;102269.69;5036360;28;20052;-73
2021/04/08 11:09:24;;;;;;;1.70;1.05;;;;;;;19.90;49.41;102289.88;5061294;28;20056;-74
2021/04/08 11:11:50;;;;;;;2.00;1.00;;;;;;;19.84;49.34;102268.81;5038460;28;20403;-74
2021/04/08 11:14:20;;;;;;;1.60;1.10;;;;;;;19.84;49.48;102273.19;5053443;28;20064;-73
2021/04/08 11:16:46;;;;;;;1.48;0.93;;;;;;;19.79;49.36;102275.72;5022080;28;20028;-73
2021/04/08 11:19:12;;;;;;;2.97;1.10;;;;;;;19.86;49.52;102284.59;5039009;28;20032;-73
2021/04/08 11:21:38;;;;;;;1.30;1.02;;;;;;;19.82;49.43;102270.53;5055528;28;20163;-74
2021/04/08 11:24:04;;;;;;;1.40;1.00;;;;;;;19.81;49.68;102265.25;5030662;28;20129;-74
2021/04/08 11:26:29;;;;;;;2.22;1.10;;;;;;;19.79;49.82;102267.84;5056326;28;20064;-74
2021/04/08 11:28:57;;;;;;;0.90;0.70;;;;;;;19.81;49.54;102274.00;5005928;28;20048;-74
2021/04/08 11:31:23;;;;;;;1.85;1.05;;;;;;;19.84;49.53;102266.19;5038250;28;20036;-73
2021/04/08 11:33:57;;;;;;;1.98;1.33;;;;;;;19.82;49.40;102267.91;5035181;28;20098;-74